CDG4676 ZGGG-ZSQD
Flight info
| Callsign | CDG4676 |
|---|---|
| Flight time | 2h 29m |
| Altitude | 33100 |
| Route | LMN G471 XEBUL DCT ODOPI DCT AKAVO DCT DST/K0872S1070 W117 BEGMO W13 TOGUG/K0876S1040 W13 HSN/K0874S1070 W13 PINOT/K0876S1040 B221 IDVEL |
| Aircraft | B738/M-SDE2E3FGHIRWXY/LB1 |
Departure
| Time | 2026-05-01 12:31 |
|---|---|
| Airport | Guangzhou Baiyun International Airport (ZGGG) |
Arrival
| Time | 2026-05-01 15:00 |
|---|---|
| Airport | Qingdao Jiaodong International Airport (ZSQD) |
| Time | Latitude | Longitude | Altitude | Speed | Heading |
|---|---|---|---|---|---|
| 2026-05-01 11:34 | 23.38597 | 113.29426 | 54 ft | 0 kts | 360° |
| 2026-05-01 12:14 | 23.38594 | 113.29426 | 53 ft | 2 kts | 0° |
| 2026-05-01 12:14 | 23.38579 | 113.29424 | 53 ft | 2 kts | 3° |
| 2026-05-01 12:14 | 23.38564 | 113.29424 | 53 ft | 2 kts | 2° |
| 2026-05-01 12:15 | 23.38549 | 113.29424 | 53 ft | 2 kts | 2° |
| 2026-05-01 12:15 | 23.38534 | 113.29423 | 53 ft | 2 kts | 2° |
| 2026-05-01 12:15 | 23.38519 | 113.29422 | 53 ft | 2 kts | 2° |
| 2026-05-01 12:15 | 23.38504 | 113.29421 | 53 ft | 2 kts | 2° |
| 2026-05-01 12:16 | 23.38489 | 113.29421 | 53 ft | 2 kts | 2° |
| 2026-05-01 12:16 | 23.38474 | 113.29420 | 53 ft | 2 kts | 2° |
| 2026-05-01 12:16 | 23.38466 | 113.29419 | 53 ft | 0 kts | 352° |
| 2026-05-01 12:16 | 23.38462 | 113.29421 | 53 ft | 0 kts | 336° |
| 2026-05-01 12:20 | 23.38462 | 113.29420 | 53 ft | 0 kts | 336° |
| 2026-05-01 12:20 | 23.38474 | 113.29414 | 53 ft | 3 kts | 336° |
| 2026-05-01 12:20 | 23.38492 | 113.29394 | 53 ft | 4 kts | 281° |
| 2026-05-01 12:20 | 23.38484 | 113.29357 | 53 ft | 5 kts | 250° |
| 2026-05-01 12:21 | 23.38468 | 113.29316 | 53 ft | 6 kts | 245° |
| 2026-05-01 12:21 | 23.38449 | 113.29270 | 53 ft | 6 kts | 245° |
| 2026-05-01 12:21 | 23.38428 | 113.29219 | 53 ft | 7 kts | 245° |
| 2026-05-01 12:21 | 23.38405 | 113.29164 | 53 ft | 8 kts | 245° |
| 2026-05-01 12:22 | 23.38402 | 113.29099 | 53 ft | 9 kts | 282° |
| 2026-05-01 12:22 | 23.38418 | 113.29028 | 53 ft | 10 kts | 284° |
| 2026-05-01 12:22 | 23.38437 | 113.28947 | 53 ft | 11 kts | 284° |
| 2026-05-01 12:22 | 23.38456 | 113.28863 | 53 ft | 10 kts | 283° |
| 2026-05-01 12:23 | 23.38480 | 113.28782 | 53 ft | 11 kts | 310° |
| 2026-05-01 12:23 | 23.38558 | 113.28774 | 53 ft | 12 kts | 13° |
| 2026-05-01 12:23 | 23.38645 | 113.28799 | 53 ft | 13 kts | 14° |
| 2026-05-01 12:23 | 23.38736 | 113.28822 | 53 ft | 14 kts | 13° |
| 2026-05-01 12:24 | 23.38835 | 113.28849 | 53 ft | 14 kts | 14° |
| 2026-05-01 12:24 | 23.38928 | 113.28874 | 53 ft | 14 kts | 14° |
| 2026-05-01 12:24 | 23.39028 | 113.28901 | 53 ft | 15 kts | 14° |
| 2026-05-01 12:24 | 23.39134 | 113.28929 | 53 ft | 16 kts | 13° |
| 2026-05-01 12:25 | 23.39248 | 113.28960 | 53 ft | 17 kts | 14° |
| 2026-05-01 12:25 | 23.39497 | 113.29027 | 53 ft | 19 kts | 14° |
| 2026-05-01 12:25 | 23.39629 | 113.29063 | 53 ft | 19 kts | 13° |
| 2026-05-01 12:26 | 23.39752 | 113.29096 | 53 ft | 13 kts | 14° |
| 2026-05-01 12:26 | 23.39953 | 113.29150 | 53 ft | 15 kts | 14° |
| 2026-05-01 12:26 | 23.40062 | 113.29179 | 53 ft | 16 kts | 14° |
| 2026-05-01 12:27 | 23.40164 | 113.29206 | 53 ft | 14 kts | 13° |
| 2026-05-01 12:27 | 23.40378 | 113.29264 | 53 ft | 16 kts | 14° |
| 2026-05-01 12:28 | 23.40568 | 113.29316 | 53 ft | 8 kts | 13° |
| 2026-05-01 12:28 | 23.40608 | 113.29298 | 53 ft | 5 kts | 296° |
| 2026-05-01 12:28 | 23.40621 | 113.29252 | 53 ft | 0 kts | 284° |
| 2026-05-01 12:29 | 23.40621 | 113.29250 | 53 ft | 1 kts | 284° |
| 2026-05-01 12:29 | 23.40625 | 113.29234 | 53 ft | 3 kts | 284° |
| 2026-05-01 12:29 | 23.40634 | 113.29170 | 53 ft | 4 kts | 258° |
| 2026-05-01 12:30 | 23.40599 | 113.29135 | 53 ft | 0 kts | 195° |
| 2026-05-01 12:30 | 23.40399 | 113.29080 | 53 ft | 65 kts | 193° |
| 2026-05-01 12:30 | 23.39736 | 113.28902 | 53 ft | 128 kts | 194° |
| 2026-05-01 12:31 | 23.38683 | 113.28614 | 92 ft | 175 kts | 194° |
| 2026-05-01 12:31 | 23.37509 | 113.28252 | 698 ft | 176 kts | 192° |
| 2026-05-01 12:31 | 23.36305 | 113.27867 | 1287 ft | 185 kts | 199° |
| 2026-05-01 12:31 | 23.35164 | 113.27222 | 1927 ft | 187 kts | 211° |
| 2026-05-01 12:32 | 23.34101 | 113.26385 | 2473 ft | 191 kts | 217° |
| 2026-05-01 12:32 | 23.32289 | 113.24184 | 3006 ft | 199 kts | 236° |
| 2026-05-01 12:32 | 23.31622 | 113.22862 | 2996 ft | 197 kts | 247° |
| 2026-05-01 12:33 | 23.31490 | 113.21396 | 2999 ft | 201 kts | 281° |
| 2026-05-01 12:33 | 23.31926 | 113.19932 | 2998 ft | 202 kts | 288° |
| 2026-05-01 12:33 | 23.32353 | 113.18489 | 2997 ft | 201 kts | 284° |
| 2026-05-01 12:33 | 23.32713 | 113.16996 | 2998 ft | 201 kts | 282° |
| 2026-05-01 12:34 | 23.33040 | 113.15538 | 2994 ft | 201 kts | 282° |
| 2026-05-01 12:34 | 23.33380 | 113.14042 | 2994 ft | 201 kts | 282° |
| 2026-05-01 12:34 | 23.33723 | 113.12543 | 3066 ft | 211 kts | 282° |
| 2026-05-01 12:34 | 23.34101 | 113.10948 | 3465 ft | 223 kts | 286° |
| 2026-05-01 12:35 | 23.34797 | 113.09412 | 3787 ft | 238 kts | 309° |
| 2026-05-01 12:35 | 23.36165 | 113.08328 | 4114 ft | 251 kts | 339° |
| 2026-05-01 12:35 | 23.37893 | 113.07994 | 4592 ft | 256 kts | 359° |
| 2026-05-01 12:35 | 23.39705 | 113.07996 | 5118 ft | 260 kts | 1° |
| 2026-05-01 12:36 | 23.41552 | 113.08004 | 5639 ft | 263 kts | 0° |
| 2026-05-01 12:36 | 23.43405 | 113.07998 | 6149 ft | 267 kts | 360° |
| 2026-05-01 12:36 | 23.45283 | 113.07986 | 6602 ft | 276 kts | 360° |
| 2026-05-01 12:36 | 23.47251 | 113.07976 | 7237 ft | 282 kts | 360° |
| 2026-05-01 12:37 | 23.49252 | 113.07969 | 7838 ft | 290 kts | 360° |
| 2026-05-01 12:37 | 23.51260 | 113.07964 | 8615 ft | 292 kts | 359° |
| 2026-05-01 12:37 | 23.53287 | 113.07948 | 9413 ft | 292 kts | 360° |
| 2026-05-01 12:37 | 23.55320 | 113.07928 | 10174 ft | 292 kts | 359° |
| 2026-05-01 12:38 | 23.57386 | 113.07912 | 10571 ft | 304 kts | 359° |
| 2026-05-01 12:38 | 23.59586 | 113.07896 | 10901 ft | 318 kts | 359° |
| 2026-05-01 12:38 | 23.61848 | 113.07875 | 11199 ft | 333 kts | 359° |
| 2026-05-01 12:38 | 23.64234 | 113.07854 | 11451 ft | 348 kts | 359° |
| 2026-05-01 12:39 | 23.66734 | 113.07833 | 11529 ft | 367 kts | 358° |
| 2026-05-01 12:39 | 23.69345 | 113.07909 | 11579 ft | 385 kts | 3° |
| 2026-05-01 12:39 | 23.72064 | 113.08556 | 11589 ft | 407 kts | 17° |
| 2026-05-01 12:39 | 23.74729 | 113.09775 | 11829 ft | 419 kts | 22° |
| 2026-05-01 12:40 | 23.77363 | 113.11195 | 12321 ft | 424 kts | 25° |
| 2026-05-01 12:40 | 23.80000 | 113.12684 | 12900 ft | 427 kts | 25° |
| 2026-05-01 12:40 | 23.82676 | 113.14194 | 13478 ft | 430 kts | 25° |
| 2026-05-01 12:40 | 23.85355 | 113.15685 | 14012 ft | 434 kts | 24° |
| 2026-05-01 12:41 | 23.88084 | 113.17175 | 14556 ft | 437 kts | 24° |
| 2026-05-01 12:41 | 23.90842 | 113.18657 | 15096 ft | 441 kts | 23° |
| 2026-05-01 12:41 | 23.93602 | 113.20126 | 15638 ft | 445 kts | 23° |
| 2026-05-01 12:41 | 23.96405 | 113.21612 | 16181 ft | 448 kts | 23° |
| 2026-05-01 12:42 | 23.99238 | 113.23112 | 16705 ft | 451 kts | 23° |
| 2026-05-01 12:42 | 24.02068 | 113.24608 | 17238 ft | 454 kts | 23° |
| 2026-05-01 12:42 | 24.04913 | 113.26111 | 17795 ft | 456 kts | 23° |
| 2026-05-01 12:42 | 24.07796 | 113.27634 | 18262 ft | 459 kts | 23° |
| 2026-05-01 12:43 | 24.10728 | 113.29184 | 18759 ft | 462 kts | 23° |
| 2026-05-01 12:43 | 24.13669 | 113.30740 | 19228 ft | 465 kts | 23° |
| 2026-05-01 12:43 | 24.16614 | 113.32297 | 19674 ft | 468 kts | 23° |
| 2026-05-01 12:43 | 24.19553 | 113.33852 | 20103 ft | 472 kts | 23° |
| 2026-05-01 12:44 | 24.22539 | 113.35433 | 20535 ft | 475 kts | 23° |
| 2026-05-01 12:44 | 24.25544 | 113.37028 | 20997 ft | 477 kts | 23° |
| 2026-05-01 12:44 | 24.31582 | 113.40136 | 21781 ft | 483 kts | 20° |
| 2026-05-01 12:45 | 24.37993 | 113.42152 | 22611 ft | 481 kts | 5° |
| 2026-05-01 12:45 | 24.41349 | 113.42529 | 23011 ft | 482 kts | 1° |
| 2026-05-01 12:45 | 24.44738 | 113.42690 | 23421 ft | 484 kts | 358° |
| 2026-05-01 12:46 | 24.48124 | 113.42744 | 23763 ft | 487 kts | 357° |
| 2026-05-01 12:46 | 24.51543 | 113.42759 | 24198 ft | 489 kts | 356° |
| 2026-05-01 12:46 | 24.54960 | 113.42770 | 24569 ft | 492 kts | 357° |
| 2026-05-01 12:46 | 24.58419 | 113.42796 | 25008 ft | 493 kts | 357° |
| 2026-05-01 12:47 | 24.61842 | 113.42844 | 25579 ft | 491 kts | 357° |
| 2026-05-01 12:47 | 24.65217 | 113.42908 | 26212 ft | 487 kts | 357° |
| 2026-05-01 12:47 | 24.68600 | 113.42986 | 26821 ft | 484 kts | 357° |
| 2026-05-01 12:47 | 24.71975 | 113.43072 | 27379 ft | 482 kts | 357° |
| 2026-05-01 12:48 | 24.75328 | 113.43164 | 27848 ft | 482 kts | 357° |
| 2026-05-01 12:48 | 24.78679 | 113.43258 | 28312 ft | 481 kts | 357° |
| 2026-05-01 12:48 | 24.82042 | 113.43353 | 28749 ft | 481 kts | 357° |
| 2026-05-01 12:48 | 24.85404 | 113.43449 | 29230 ft | 480 kts | 357° |
| 2026-05-01 12:49 | 24.88748 | 113.43543 | 29641 ft | 480 kts | 357° |
| 2026-05-01 12:49 | 24.92103 | 113.43638 | 30021 ft | 481 kts | 357° |
| 2026-05-01 12:49 | 24.95463 | 113.43733 | 30433 ft | 481 kts | 357° |
| 2026-05-01 12:49 | 24.98800 | 113.43829 | 30878 ft | 480 kts | 357° |
| 2026-05-01 12:50 | 25.02125 | 113.43923 | 31304 ft | 479 kts | 357° |
| 2026-05-01 12:50 | 25.05472 | 113.44019 | 31758 ft | 477 kts | 357° |
| 2026-05-01 12:50 | 25.08826 | 113.44116 | 32240 ft | 474 kts | 358° |
| 2026-05-01 12:50 | 25.12105 | 113.44212 | 32712 ft | 472 kts | 357° |
| 2026-05-01 12:51 | 25.15434 | 113.44307 | 32952 ft | 475 kts | 357° |
| 2026-05-01 12:51 | 25.18817 | 113.44402 | 33099 ft | 476 kts | 357° |
| 2026-05-01 12:52 | 25.28763 | 113.44687 | 33099 ft | 472 kts | 357° |
| 2026-05-01 12:52 | 25.38684 | 113.44969 | 33097 ft | 472 kts | 357° |
| 2026-05-01 12:53 | 25.48562 | 113.45253 | 33105 ft | 475 kts | 357° |
| 2026-05-01 12:54 | 25.55211 | 113.45445 | 33108 ft | 474 kts | 357° |
| 2026-05-01 12:54 | 25.65179 | 113.45733 | 33099 ft | 473 kts | 357° |
| 2026-05-01 12:55 | 25.75084 | 113.46020 | 33102 ft | 473 kts | 356° |
| 2026-05-01 12:56 | 25.81738 | 113.46212 | 33094 ft | 475 kts | 356° |
| 2026-05-01 12:56 | 25.88370 | 113.46388 | 33079 ft | 475 kts | 356° |
| 2026-05-01 12:57 | 25.94980 | 113.46252 | 33058 ft | 473 kts | 353° |
| 2026-05-01 12:57 | 26.04863 | 113.45766 | 33035 ft | 474 kts | 352° |
| 2026-05-01 12:58 | 26.11483 | 113.45459 | 33050 ft | 472 kts | 353° |
| 2026-05-01 12:59 | 26.21449 | 113.45044 | 33056 ft | 472 kts | 353° |
| 2026-05-01 12:59 | 26.31339 | 113.44659 | 33036 ft | 474 kts | 353° |
| 2026-05-01 13:00 | 26.41342 | 113.44274 | 33016 ft | 475 kts | 353° |
| 2026-05-01 13:01 | 26.51270 | 113.43893 | 33007 ft | 475 kts | 353° |
| 2026-05-01 13:02 | 26.61176 | 113.43515 | 32997 ft | 474 kts | 353° |
| 2026-05-01 13:07 | 27.34329 | 113.40705 | 32971 ft | 478 kts | 353° |
| 2026-05-01 13:08 | 27.41040 | 113.40732 | 32971 ft | 479 kts | 356° |
| 2026-05-01 13:08 | 27.47707 | 113.40923 | 32964 ft | 480 kts | 356° |
| 2026-05-01 13:09 | 27.54422 | 113.41119 | 32968 ft | 479 kts | 356° |
| 2026-05-01 13:09 | 27.61084 | 113.41287 | 32969 ft | 478 kts | 356° |
| 2026-05-01 13:10 | 27.67771 | 113.41468 | 32971 ft | 479 kts | 357° |
| 2026-05-01 13:10 | 27.74506 | 113.41985 | 32972 ft | 482 kts | 360° |
| 2026-05-01 13:11 | 27.80978 | 113.42632 | 32976 ft | 482 kts | 0° |
| 2026-05-01 13:11 | 27.87652 | 113.43298 | 32986 ft | 482 kts | 360° |
| 2026-05-01 13:12 | 27.94349 | 113.43933 | 32981 ft | 481 kts | 359° |
| 2026-05-01 13:12 | 28.01088 | 113.44539 | 32983 ft | 483 kts | 359° |
| 2026-05-01 13:13 | 28.07791 | 113.45129 | 32982 ft | 480 kts | 359° |
| 2026-05-01 13:13 | 28.14526 | 113.45679 | 32977 ft | 480 kts | 359° |
| 2026-05-01 13:14 | 28.21253 | 113.46149 | 32980 ft | 480 kts | 358° |
| 2026-05-01 13:14 | 28.27944 | 113.46608 | 32978 ft | 480 kts | 358° |
| 2026-05-01 13:15 | 28.34610 | 113.47073 | 32985 ft | 479 kts | 358° |
| 2026-05-01 13:15 | 28.41309 | 113.47549 | 32986 ft | 480 kts | 358° |
| 2026-05-01 13:16 | 28.48028 | 113.48028 | 32990 ft | 479 kts | 358° |
| 2026-05-01 13:16 | 28.54721 | 113.48505 | 32987 ft | 480 kts | 358° |
| 2026-05-01 13:17 | 28.68070 | 113.49458 | 32974 ft | 480 kts | 358° |
| 2026-05-01 13:18 | 28.78098 | 113.50182 | 32971 ft | 477 kts | 358° |
| 2026-05-01 13:18 | 28.84771 | 113.50662 | 32983 ft | 478 kts | 358° |
| 2026-05-01 13:19 | 28.91418 | 113.51139 | 32989 ft | 479 kts | 358° |
| 2026-05-01 13:20 | 29.01466 | 113.51863 | 32990 ft | 479 kts | 358° |
| 2026-05-01 13:20 | 29.08186 | 113.52348 | 32994 ft | 477 kts | 358° |
| 2026-05-01 13:21 | 29.18226 | 113.53072 | 32998 ft | 478 kts | 358° |
| 2026-05-01 13:21 | 29.24934 | 113.53560 | 32992 ft | 476 kts | 358° |
| 2026-05-01 13:22 | 29.31556 | 113.54054 | 32991 ft | 476 kts | 358° |
| 2026-05-01 13:22 | 29.38212 | 113.54617 | 32979 ft | 478 kts | 359° |
| 2026-05-01 13:23 | 29.44841 | 113.55205 | 32974 ft | 475 kts | 359° |
| 2026-05-01 13:23 | 29.51447 | 113.55793 | 32972 ft | 477 kts | 359° |
| 2026-05-01 13:24 | 29.58089 | 113.56380 | 32963 ft | 477 kts | 359° |
| 2026-05-01 13:25 | 29.68082 | 113.57252 | 32955 ft | 478 kts | 359° |
| 2026-05-01 13:25 | 29.74724 | 113.57832 | 32954 ft | 476 kts | 359° |
| 2026-05-01 13:26 | 29.81334 | 113.58408 | 32944 ft | 475 kts | 359° |
| 2026-05-01 13:26 | 29.87973 | 113.58990 | 32935 ft | 475 kts | 359° |
| 2026-05-01 13:27 | 29.94606 | 113.60021 | 32937 ft | 480 kts | 8° |
| 2026-05-01 13:27 | 30.04168 | 113.63990 | 32939 ft | 487 kts | 18° |
| 2026-05-01 13:28 | 30.13524 | 113.68829 | 32938 ft | 490 kts | 20° |
| 2026-05-01 13:29 | 30.26102 | 113.75283 | 32963 ft | 491 kts | 19° |
| 2026-05-01 13:30 | 30.38719 | 113.81634 | 33750 ft | 494 kts | 19° |
| 2026-05-01 13:31 | 30.44995 | 113.84790 | 34629 ft | 489 kts | 19° |
| 2026-05-01 13:31 | 30.54481 | 113.89562 | 34955 ft | 490 kts | 18° |
| 2026-05-01 13:32 | 30.60806 | 113.92748 | 34956 ft | 491 kts | 18° |
| 2026-05-01 13:33 | 30.76619 | 114.00764 | 34959 ft | 491 kts | 20° |
| 2026-05-01 13:34 | 30.89071 | 114.07680 | 34864 ft | 493 kts | 20° |
| 2026-05-01 13:35 | 30.95312 | 114.11091 | 34277 ft | 490 kts | 20° |
| 2026-05-01 13:35 | 30.98427 | 114.12786 | 33995 ft | 491 kts | 20° |
| 2026-05-01 13:35 | 31.04686 | 114.16187 | 33421 ft | 493 kts | 20° |
| 2026-05-01 13:36 | 31.07822 | 114.17890 | 33137 ft | 493 kts | 20° |
| 2026-05-01 13:36 | 31.10983 | 114.19608 | 32959 ft | 493 kts | 20° |
| 2026-05-01 13:36 | 31.17239 | 114.23013 | 32954 ft | 497 kts | 20° |
| 2026-05-01 13:37 | 31.23558 | 114.26455 | 32959 ft | 496 kts | 19° |
| 2026-05-01 13:37 | 31.29842 | 114.29888 | 32966 ft | 497 kts | 19° |
| 2026-05-01 13:38 | 31.36284 | 114.32777 | 32971 ft | 488 kts | 7° |
| 2026-05-01 13:38 | 31.39626 | 114.33433 | 32980 ft | 481 kts | 360° |
| 2026-05-01 13:39 | 31.46277 | 114.33861 | 32979 ft | 476 kts | 355° |
| 2026-05-01 13:39 | 31.52934 | 114.33922 | 32978 ft | 475 kts | 354° |
| 2026-05-01 13:40 | 31.59545 | 114.33978 | 32981 ft | 475 kts | 354° |
| 2026-05-01 13:40 | 31.66223 | 114.34100 | 32981 ft | 475 kts | 355° |
| 2026-05-01 13:41 | 31.72874 | 114.34270 | 32987 ft | 478 kts | 355° |
| 2026-05-01 13:41 | 31.79499 | 114.34460 | 32983 ft | 476 kts | 355° |
| 2026-05-01 13:42 | 31.86197 | 114.34663 | 32985 ft | 476 kts | 355° |
| 2026-05-01 13:42 | 31.92833 | 114.34863 | 32982 ft | 477 kts | 355° |
| 2026-05-01 13:43 | 31.99480 | 114.35067 | 32982 ft | 475 kts | 355° |
| 2026-05-01 13:43 | 32.06142 | 114.35268 | 32983 ft | 476 kts | 355° |
| 2026-05-01 13:44 | 32.12811 | 114.35468 | 32983 ft | 478 kts | 355° |
| 2026-05-01 13:44 | 32.19581 | 114.35673 | 32981 ft | 477 kts | 355° |
| 2026-05-01 13:45 | 32.26236 | 114.35881 | 32981 ft | 476 kts | 355° |
| 2026-05-01 13:45 | 32.32904 | 114.36323 | 32981 ft | 480 kts | 358° |
| 2026-05-01 13:46 | 32.39581 | 114.36983 | 32978 ft | 478 kts | 359° |
| 2026-05-01 13:46 | 32.46231 | 114.37662 | 32978 ft | 478 kts | 359° |
| 2026-05-01 13:47 | 32.52884 | 114.38309 | 32979 ft | 480 kts | 358° |
| 2026-05-01 13:47 | 32.59573 | 114.38942 | 32978 ft | 478 kts | 359° |
| 2026-05-01 13:48 | 32.66236 | 114.39563 | 32982 ft | 476 kts | 359° |
| 2026-05-01 13:48 | 32.72875 | 114.40175 | 32987 ft | 478 kts | 359° |
| 2026-05-01 13:49 | 32.79566 | 114.40795 | 32990 ft | 478 kts | 359° |
| 2026-05-01 13:49 | 32.86196 | 114.41409 | 32997 ft | 476 kts | 359° |
| 2026-05-01 13:50 | 32.92845 | 114.42031 | 33002 ft | 478 kts | 358° |
| 2026-05-01 13:50 | 32.99511 | 114.42657 | 33000 ft | 479 kts | 359° |
| 2026-05-01 13:51 | 33.06193 | 114.43285 | 32998 ft | 476 kts | 359° |
| 2026-05-01 13:51 | 33.12841 | 114.43908 | 33000 ft | 477 kts | 359° |
| 2026-05-01 13:52 | 33.19538 | 114.44538 | 32997 ft | 477 kts | 359° |
| 2026-05-01 13:52 | 33.26202 | 114.45162 | 32987 ft | 476 kts | 359° |
| 2026-05-01 13:53 | 33.32849 | 114.45791 | 32983 ft | 477 kts | 359° |
| 2026-05-01 13:53 | 33.42775 | 114.46725 | 32982 ft | 479 kts | 358° |
| 2026-05-01 13:54 | 33.49404 | 114.47349 | 32982 ft | 476 kts | 358° |
| 2026-05-01 13:54 | 33.56014 | 114.47973 | 32982 ft | 477 kts | 359° |
| 2026-05-01 13:55 | 33.62691 | 114.48606 | 32983 ft | 477 kts | 359° |
| 2026-05-01 13:55 | 33.69339 | 114.49232 | 32987 ft | 476 kts | 358° |
| 2026-05-01 13:56 | 33.75981 | 114.49853 | 32988 ft | 476 kts | 358° |
| 2026-05-01 13:56 | 33.82636 | 114.50474 | 32998 ft | 479 kts | 358° |
| 2026-05-01 13:57 | 33.88180 | 114.50993 | 32999 ft | 478 kts | 358° |
| 2026-05-01 13:57 | 33.95955 | 114.51727 | 33005 ft | 477 kts | 358° |
| 2026-05-01 13:58 | 34.02586 | 114.52354 | 33008 ft | 477 kts | 358° |
| 2026-05-01 13:58 | 34.09242 | 114.52982 | 33008 ft | 477 kts | 358° |
| 2026-05-01 13:59 | 34.15863 | 114.53610 | 33009 ft | 476 kts | 358° |
| 2026-05-01 13:59 | 34.22555 | 114.54241 | 33012 ft | 476 kts | 359° |
| 2026-05-01 14:00 | 34.29248 | 114.54875 | 33011 ft | 475 kts | 358° |
| 2026-05-01 14:00 | 34.35868 | 114.55507 | 33015 ft | 479 kts | 358° |
| 2026-05-01 14:01 | 34.42513 | 114.56139 | 33015 ft | 479 kts | 359° |
| 2026-05-01 14:01 | 34.49170 | 114.56773 | 33015 ft | 478 kts | 359° |
| 2026-05-01 14:02 | 34.55815 | 114.57406 | 33020 ft | 478 kts | 358° |
| 2026-05-01 14:02 | 34.62510 | 114.58038 | 33019 ft | 480 kts | 359° |
| 2026-05-01 14:03 | 34.69105 | 114.58664 | 33022 ft | 480 kts | 358° |
| 2026-05-01 14:03 | 34.75721 | 114.59293 | 33032 ft | 478 kts | 358° |
| 2026-05-01 14:04 | 34.82357 | 114.59933 | 33037 ft | 477 kts | 359° |
| 2026-05-01 14:04 | 34.87920 | 114.60468 | 33042 ft | 478 kts | 358° |
| 2026-05-01 14:05 | 34.95718 | 114.61211 | 33047 ft | 477 kts | 359° |
| 2026-05-01 14:05 | 35.02370 | 114.61844 | 33046 ft | 480 kts | 359° |
| 2026-05-01 14:06 | 35.09085 | 114.62485 | 33045 ft | 481 kts | 358° |
| 2026-05-01 14:06 | 35.15781 | 114.63129 | 33044 ft | 479 kts | 359° |
| 2026-05-01 14:07 | 35.22451 | 114.63769 | 33041 ft | 481 kts | 359° |
| 2026-05-01 14:08 | 35.32550 | 114.64746 | 33037 ft | 481 kts | 358° |
| 2026-05-01 14:08 | 35.39272 | 114.65397 | 33031 ft | 482 kts | 359° |
| 2026-05-01 14:09 | 35.45918 | 114.66040 | 33030 ft | 481 kts | 359° |
| 2026-05-01 14:09 | 35.52666 | 114.66692 | 33031 ft | 484 kts | 358° |
| 2026-05-01 14:10 | 35.59350 | 114.67345 | 33025 ft | 482 kts | 359° |
| 2026-05-01 14:10 | 35.66058 | 114.67995 | 33025 ft | 483 kts | 359° |
| 2026-05-01 14:11 | 35.72810 | 114.68650 | 33016 ft | 486 kts | 358° |
| 2026-05-01 14:11 | 35.82931 | 114.69642 | 33015 ft | 485 kts | 358° |
| 2026-05-01 14:12 | 35.89663 | 114.70306 | 33016 ft | 483 kts | 358° |
| 2026-05-01 14:12 | 35.96376 | 114.70963 | 33009 ft | 485 kts | 358° |
| 2026-05-01 14:13 | 36.02046 | 114.71518 | 33007 ft | 486 kts | 358° |
| 2026-05-01 14:13 | 36.09890 | 114.72292 | 33011 ft | 483 kts | 358° |
| 2026-05-01 14:14 | 36.16633 | 114.72952 | 33016 ft | 486 kts | 358° |
| 2026-05-01 14:14 | 36.23409 | 114.74614 | 33005 ft | 498 kts | 17° |
| 2026-05-01 14:15 | 36.26550 | 114.76595 | 33006 ft | 509 kts | 29° |
| 2026-05-01 14:15 | 36.29347 | 114.79306 | 33018 ft | 515 kts | 41° |
| 2026-05-01 14:15 | 36.33981 | 114.86177 | 33012 ft | 519 kts | 54° |
| 2026-05-01 14:16 | 36.35788 | 114.90121 | 33002 ft | 523 kts | 65° |
| 2026-05-01 14:16 | 36.37040 | 114.94327 | 33010 ft | 523 kts | 72° |
| 2026-05-01 14:16 | 36.39023 | 115.02927 | 33004 ft | 522 kts | 76° |
| 2026-05-01 14:17 | 36.40845 | 115.11710 | 33004 ft | 523 kts | 76° |
| 2026-05-01 14:17 | 36.42694 | 115.20415 | 33009 ft | 523 kts | 73° |
| 2026-05-01 14:18 | 36.45245 | 115.28972 | 33006 ft | 525 kts | 66° |
| 2026-05-01 14:18 | 36.47687 | 115.35871 | 33016 ft | 523 kts | 64° |
| 2026-05-01 14:19 | 36.51231 | 115.45471 | 33003 ft | 522 kts | 64° |
| 2026-05-01 14:19 | 36.54232 | 115.53664 | 33011 ft | 522 kts | 64° |
| 2026-05-01 14:20 | 36.58672 | 115.66065 | 33005 ft | 525 kts | 65° |
| 2026-05-01 14:21 | 36.61552 | 115.74239 | 33010 ft | 524 kts | 65° |
| 2026-05-01 14:21 | 36.64500 | 115.82642 | 33010 ft | 525 kts | 65° |
| 2026-05-01 14:22 | 36.68890 | 115.95207 | 33003 ft | 527 kts | 65° |
| 2026-05-01 14:22 | 36.71820 | 116.03621 | 32997 ft | 524 kts | 65° |
| 2026-05-01 14:23 | 36.74736 | 116.12020 | 32998 ft | 528 kts | 65° |
| 2026-05-01 14:23 | 36.77619 | 116.20417 | 32990 ft | 526 kts | 67° |
| 2026-05-01 14:24 | 36.79850 | 116.29225 | 32989 ft | 528 kts | 78° |
| 2026-05-01 14:24 | 36.80454 | 116.33717 | 32771 ft | 524 kts | 83° |
| 2026-05-01 14:24 | 36.80823 | 116.38233 | 32494 ft | 515 kts | 86° |
| 2026-05-01 14:25 | 36.81038 | 116.42655 | 32230 ft | 512 kts | 88° |
| 2026-05-01 14:25 | 36.81183 | 116.47128 | 31956 ft | 514 kts | 89° |
| 2026-05-01 14:25 | 36.81295 | 116.51611 | 31691 ft | 515 kts | 89° |
| 2026-05-01 14:25 | 36.81395 | 116.56084 | 31421 ft | 517 kts | 89° |
| 2026-05-01 14:26 | 36.81496 | 116.60588 | 31150 ft | 519 kts | 89° |
| 2026-05-01 14:26 | 36.81723 | 116.69632 | 30617 ft | 518 kts | 89° |
| 2026-05-01 14:26 | 36.81847 | 116.74133 | 30355 ft | 519 kts | 89° |
| 2026-05-01 14:27 | 36.81979 | 116.78678 | 30094 ft | 522 kts | 88° |
| 2026-05-01 14:27 | 36.82114 | 116.83226 | 29830 ft | 523 kts | 88° |
| 2026-05-01 14:27 | 36.82249 | 116.87750 | 29571 ft | 522 kts | 88° |
| 2026-05-01 14:28 | 36.82520 | 116.96896 | 29047 ft | 526 kts | 87° |
| 2026-05-01 14:28 | 36.82658 | 117.01476 | 28800 ft | 527 kts | 87° |
| 2026-05-01 14:28 | 36.82794 | 117.06097 | 28547 ft | 527 kts | 88° |
| 2026-05-01 14:28 | 36.82927 | 117.10669 | 28292 ft | 523 kts | 88° |
| 2026-05-01 14:29 | 36.83054 | 117.15153 | 28051 ft | 521 kts | 88° |
| 2026-05-01 14:29 | 36.83137 | 117.19737 | 27796 ft | 524 kts | 90° |
| 2026-05-01 14:30 | 36.82383 | 117.33267 | 27046 ft | 520 kts | 98° |
| 2026-05-01 14:30 | 36.81938 | 117.37732 | 26797 ft | 519 kts | 98° |
| 2026-05-01 14:30 | 36.81470 | 117.42162 | 26565 ft | 516 kts | 98° |
| 2026-05-01 14:31 | 36.80521 | 117.51069 | 26458 ft | 517 kts | 98° |
| 2026-05-01 14:31 | 36.80065 | 117.55473 | 26204 ft | 505 kts | 98° |
| 2026-05-01 14:31 | 36.79627 | 117.59761 | 25939 ft | 494 kts | 97° |
| 2026-05-01 14:31 | 36.79204 | 117.63947 | 25542 ft | 482 kts | 98° |
| 2026-05-01 14:32 | 36.78800 | 117.68044 | 25169 ft | 462 kts | 98° |
| 2026-05-01 14:32 | 36.78423 | 117.71918 | 24804 ft | 445 kts | 98° |
| 2026-05-01 14:32 | 36.78048 | 117.75732 | 24465 ft | 436 kts | 98° |
| 2026-05-01 14:32 | 36.77678 | 117.79470 | 24094 ft | 431 kts | 98° |
| 2026-05-01 14:33 | 36.77310 | 117.83207 | 23720 ft | 426 kts | 98° |
| 2026-05-01 14:33 | 36.76949 | 117.86833 | 23358 ft | 423 kts | 97° |
| 2026-05-01 14:33 | 36.76591 | 117.90479 | 22999 ft | 421 kts | 97° |
| 2026-05-01 14:33 | 36.76233 | 117.94070 | 22652 ft | 416 kts | 98° |
| 2026-05-01 14:34 | 36.75868 | 117.97675 | 22317 ft | 413 kts | 98° |
| 2026-05-01 14:34 | 36.75513 | 118.01215 | 21977 ft | 410 kts | 98° |
| 2026-05-01 14:34 | 36.75157 | 118.04729 | 21650 ft | 404 kts | 98° |
| 2026-05-01 14:34 | 36.74812 | 118.08164 | 21324 ft | 398 kts | 98° |
| 2026-05-01 14:35 | 36.74473 | 118.11571 | 20978 ft | 394 kts | 98° |
| 2026-05-01 14:35 | 36.74135 | 118.14950 | 20643 ft | 389 kts | 99° |
| 2026-05-01 14:35 | 36.73797 | 118.18257 | 20295 ft | 384 kts | 99° |
| 2026-05-01 14:35 | 36.73459 | 118.21551 | 19983 ft | 379 kts | 99° |
| 2026-05-01 14:36 | 36.73134 | 118.24807 | 19636 ft | 374 kts | 98° |
| 2026-05-01 14:36 | 36.72826 | 118.28048 | 19282 ft | 370 kts | 98° |
| 2026-05-01 14:36 | 36.72533 | 118.31228 | 18906 ft | 365 kts | 99° |
| 2026-05-01 14:36 | 36.72243 | 118.34379 | 18580 ft | 361 kts | 99° |
| 2026-05-01 14:37 | 36.71956 | 118.37472 | 18227 ft | 356 kts | 99° |
| 2026-05-01 14:37 | 36.71670 | 118.40530 | 17855 ft | 353 kts | 99° |
| 2026-05-01 14:37 | 36.71381 | 118.43584 | 17495 ft | 358 kts | 98° |
| 2026-05-01 14:37 | 36.71085 | 118.46696 | 17166 ft | 363 kts | 98° |
| 2026-05-01 14:38 | 36.70803 | 118.49809 | 16878 ft | 365 kts | 97° |
| 2026-05-01 14:38 | 36.70518 | 118.52970 | 16524 ft | 364 kts | 97° |
| 2026-05-01 14:38 | 36.70221 | 118.56082 | 16142 ft | 360 kts | 98° |
| 2026-05-01 14:38 | 36.69917 | 118.59167 | 15762 ft | 355 kts | 98° |
| 2026-05-01 14:39 | 36.69614 | 118.62233 | 15382 ft | 351 kts | 98° |
| 2026-05-01 14:39 | 36.69319 | 118.65226 | 15003 ft | 349 kts | 98° |
| 2026-05-01 14:39 | 36.69020 | 118.68243 | 14618 ft | 346 kts | 98° |
| 2026-05-01 14:39 | 36.68724 | 118.71232 | 14234 ft | 344 kts | 98° |
| 2026-05-01 14:40 | 36.68429 | 118.74197 | 13850 ft | 342 kts | 98° |
| 2026-05-01 14:40 | 36.68139 | 118.77105 | 13474 ft | 339 kts | 98° |
| 2026-05-01 14:40 | 36.67850 | 118.80013 | 13151 ft | 338 kts | 98° |
| 2026-05-01 14:40 | 36.67560 | 118.82928 | 12892 ft | 335 kts | 98° |
| 2026-05-01 14:41 | 36.67278 | 118.85786 | 12737 ft | 329 kts | 98° |
| 2026-05-01 14:41 | 36.66993 | 118.88670 | 12736 ft | 331 kts | 98° |
| 2026-05-01 14:41 | 36.66706 | 118.91563 | 12743 ft | 343 kts | 98° |
| 2026-05-01 14:41 | 36.66407 | 118.94544 | 12734 ft | 349 kts | 98° |
| 2026-05-01 14:42 | 36.66114 | 118.97558 | 12738 ft | 349 kts | 98° |
| 2026-05-01 14:42 | 36.65806 | 119.00546 | 12742 ft | 350 kts | 98° |
| 2026-05-01 14:42 | 36.65496 | 119.03566 | 12739 ft | 350 kts | 98° |
| 2026-05-01 14:42 | 36.65196 | 119.06574 | 12740 ft | 350 kts | 98° |
| 2026-05-01 14:43 | 36.64904 | 119.09596 | 12740 ft | 350 kts | 96° |
| 2026-05-01 14:43 | 36.64856 | 119.12653 | 12737 ft | 351 kts | 84° |
| 2026-05-01 14:43 | 36.65346 | 119.15640 | 12742 ft | 351 kts | 74° |
| 2026-05-01 14:43 | 36.66092 | 119.18568 | 12574 ft | 353 kts | 71° |
| 2026-05-01 14:44 | 36.66904 | 119.21446 | 12334 ft | 349 kts | 70° |
| 2026-05-01 14:44 | 36.68469 | 119.27128 | 11852 ft | 345 kts | 71° |
| 2026-05-01 14:44 | 36.69169 | 119.29813 | 11622 ft | 343 kts | 72° |
| 2026-05-01 14:45 | 36.69888 | 119.32636 | 11379 ft | 341 kts | 72° |
| 2026-05-01 14:45 | 36.71314 | 119.38272 | 10879 ft | 338 kts | 72° |
| 2026-05-01 14:45 | 36.72041 | 119.41080 | 10628 ft | 337 kts | 72° |
| 2026-05-01 14:46 | 36.72763 | 119.43851 | 10379 ft | 335 kts | 71° |
| 2026-05-01 14:46 | 36.74202 | 119.49385 | 9889 ft | 342 kts | 71° |
| 2026-05-01 14:46 | 36.74930 | 119.52198 | 9803 ft | 325 kts | 71° |
| 2026-05-01 14:47 | 36.75590 | 119.54755 | 9730 ft | 304 kts | 71° |
| 2026-05-01 14:47 | 36.76231 | 119.57239 | 9369 ft | 294 kts | 71° |
| 2026-05-01 14:47 | 36.76850 | 119.59644 | 9002 ft | 286 kts | 71° |
| 2026-05-01 14:48 | 36.78065 | 119.64365 | 8268 ft | 284 kts | 71° |
| 2026-05-01 14:48 | 36.78670 | 119.66721 | 7895 ft | 282 kts | 72° |
| 2026-05-01 14:48 | 36.79869 | 119.71403 | 7152 ft | 281 kts | 72° |
| 2026-05-01 14:49 | 36.81061 | 119.76044 | 6408 ft | 279 kts | 71° |
| 2026-05-01 14:49 | 36.82232 | 119.80638 | 5667 ft | 276 kts | 72° |
| 2026-05-01 14:50 | 36.82973 | 119.83714 | 5167 ft | 275 kts | 77° |
| 2026-05-01 14:50 | 36.81630 | 119.89043 | 4938 ft | 247 kts | 146° |
| 2026-05-01 14:51 | 36.80134 | 119.90155 | 4911 ft | 247 kts | 159° |
| 2026-05-01 14:51 | 36.76977 | 119.91447 | 4791 ft | 235 kts | 166° |
| 2026-05-01 14:52 | 36.73872 | 119.92619 | 4292 ft | 230 kts | 165° |
| 2026-05-01 14:52 | 36.72348 | 119.93221 | 4046 ft | 229 kts | 165° |
| 2026-05-01 14:52 | 36.69284 | 119.94442 | 3550 ft | 227 kts | 165° |
| 2026-05-01 14:53 | 36.67790 | 119.95037 | 3527 ft | 225 kts | 165° |
| 2026-05-01 14:53 | 36.66343 | 119.95635 | 3528 ft | 211 kts | 164° |
| 2026-05-01 14:53 | 36.64972 | 119.96213 | 3525 ft | 201 kts | 165° |
| 2026-05-01 14:53 | 36.63681 | 119.96733 | 3433 ft | 196 kts | 165° |
| 2026-05-01 14:54 | 36.62379 | 119.97247 | 3177 ft | 191 kts | 166° |
| 2026-05-01 14:54 | 36.61124 | 119.97740 | 2988 ft | 187 kts | 166° |
| 2026-05-01 14:54 | 36.59881 | 119.98221 | 2988 ft | 186 kts | 165° |
| 2026-05-01 14:54 | 36.58638 | 119.98711 | 2987 ft | 189 kts | 166° |
| 2026-05-01 14:55 | 36.57367 | 119.99217 | 2988 ft | 189 kts | 165° |
| 2026-05-01 14:55 | 36.56112 | 119.99714 | 2987 ft | 189 kts | 166° |
| 2026-05-01 14:55 | 36.54851 | 120.00210 | 2986 ft | 188 kts | 166° |
| 2026-05-01 14:55 | 36.53599 | 120.00703 | 2987 ft | 188 kts | 165° |
| 2026-05-01 14:56 | 36.52340 | 120.01199 | 2986 ft | 187 kts | 166° |
| 2026-05-01 14:56 | 36.51090 | 120.01688 | 2901 ft | 190 kts | 166° |
| 2026-05-01 14:56 | 36.49823 | 120.02185 | 2631 ft | 190 kts | 166° |
| 2026-05-01 14:56 | 36.48560 | 120.02683 | 2370 ft | 186 kts | 166° |
| 2026-05-01 14:57 | 36.47369 | 120.03152 | 2131 ft | 174 kts | 166° |
| 2026-05-01 14:57 | 36.45200 | 120.04003 | 1732 ft | 154 kts | 166° |
| 2026-05-01 14:57 | 36.44167 | 120.04405 | 1479 ft | 153 kts | 166° |
| 2026-05-01 14:58 | 36.43152 | 120.04803 | 1286 ft | 153 kts | 165° |
| 2026-05-01 14:58 | 36.42124 | 120.05207 | 1077 ft | 152 kts | 165° |
| 2026-05-01 14:58 | 36.41112 | 120.05603 | 875 ft | 152 kts | 164° |
| 2026-05-01 14:58 | 36.40108 | 120.05995 | 672 ft | 151 kts | 163° |
| 2026-05-01 14:59 | 36.39099 | 120.06382 | 468 ft | 149 kts | 162° |
| 2026-05-01 14:59 | 36.38110 | 120.06770 | 284 ft | 150 kts | 161° |
| 2026-05-01 14:59 | 36.37116 | 120.07163 | 97 ft | 147 kts | 162° |
| 2026-05-01 14:59 | 36.36236 | 120.07510 | 37 ft | 103 kts | 163° |
| 2026-05-01 15:00 | 36.35595 | 120.07800 | 37 ft | 11 kts | 139° |
| 2026-05-01 15:00 | 36.35521 | 120.07883 | 37 ft | 17 kts | 136° |
| 2026-05-01 15:00 | 36.35490 | 120.07957 | 37 ft | 7 kts | 78° |
| 2026-05-01 15:01 | 36.35506 | 120.08005 | 37 ft | 4 kts | 64° |
| 2026-05-01 15:01 | 36.35523 | 120.08051 | 37 ft | 6 kts | 69° |
| 2026-05-01 15:01 | 36.35541 | 120.08116 | 37 ft | 8 kts | 71° |
| 2026-05-01 15:01 | 36.35590 | 120.08159 | 37 ft | 10 kts | 357° |
| 2026-05-01 15:02 | 36.35661 | 120.08134 | 37 ft | 9 kts | 342° |
| 2026-05-01 15:02 | 36.35681 | 120.08126 | 37 ft | 9 kts | 342° |
| 2026-05-01 15:02 | 36.35768 | 120.08092 | 37 ft | 8 kts | 343° |
| 2026-05-01 15:02 | 36.35814 | 120.08074 | 37 ft | 10 kts | 341° |
| 2026-05-01 15:03 | 36.35893 | 120.08043 | 37 ft | 12 kts | 343° |
| 2026-05-01 15:03 | 36.35985 | 120.08009 | 37 ft | 14 kts | 343° |
| 2026-05-01 15:03 | 36.36047 | 120.07986 | 37 ft | 9 kts | 343° |
| 2026-05-01 15:03 | 36.36118 | 120.07959 | 37 ft | 11 kts | 343° |
| 2026-05-01 15:04 | 36.36140 | 120.07950 | 37 ft | 2 kts | 341° |
| 2026-05-01 15:04 | 36.36169 | 120.07938 | 37 ft | 5 kts | 341° |
| 2026-05-01 15:04 | 36.36186 | 120.07931 | 37 ft | 3 kts | 341° |
| 2026-05-01 15:04 | 36.36219 | 120.07931 | 37 ft | 5 kts | 24° |
| 2026-05-01 15:05 | 36.36243 | 120.07976 | 37 ft | 3 kts | 70° |
| 2026-05-01 15:05 | 36.36253 | 120.08010 | 37 ft | 3 kts | 71° |
| 2026-05-01 15:05 | 36.36257 | 120.08027 | 37 ft | 1 kts | 73° |